Metar (rayon 200 km actualisée toutes les 30 minutes)






LFBU - Brie/Champniers, France
Distance de la station: SSE 07km
Mise à jour: 01/03/2015 21:30
Couvert
Couvert
 Wind from OSO
Vent: OSO 19 km/h
Température: 12°C
Point de Rosée: 10°C
Humidité: 88%
Baromètre: 1015 hPa
Nuages: Couvert
Visibilité: 10 km
Nuages details: nuageux 183 m
Couvert 335 m
2015/03/01 20:30 LFBU 012030Z AUTO 25010KT 9999 BKN006 OVC011 12/10 Q1015
LFBG - Cognac/Chateaubernard, France
Distance de la station: OSO 35km
Mise à jour: 01/03/2015 21:30
Bruine Légère, Broulliard, Couvert
Bruine Légère, Broulliard, Couvert
 Wind from OSO
Vent: OSO 15 km/h
Température: 12°C
Point de Rosée: 11°C
Humidité: 94%
Baromètre: 1015 hPa
Récapitulatifs: Bruine Légère, Broulliard
Nuages: Couvert
Visibilité: 3 km
Nuages details: Couvert 183 m
2015/03/01 20:30 LFBG 012030Z AUTO 24008KT 3100 -RADZ BR OVC006 12/11 Q1015
 
LFBL - Limoges/Bellegarde, France
Distance de la station: E 82km
Mise à jour: 01/03/2015 21:30
faible pluie, Couvert
faible pluie, Couvert
 Wind from OSO
Vent: OSO 19 km/h
Température: 10°C
Wind Chill: 7°C
Point de Rosée: 10°C
Humidité: 100%
Baromètre: 1014 hPa
Récapitulatifs: faible pluie
Nuages: Couvert
Visibilité: 7 km
Nuages details: Couvert 91 m
2015/03/01 20:30 LFBL 012030Z AUTO 24010KT 210V270 7000 -RA OVC003 10/10 Q1014
LFBI - Poitiers/France
Distance de la station: N 93km
Mise à jour: 01/03/2015 21:30
nuageux
nuageux
 Wind from SO
Vent: SO 26 km/h
Température: 11°C
Point de Rosée: 9°C
Humidité: 88%
Baromètre: 1013 hPa
Nuages: nuageux
Visibilité: 10 km
Nuages details: nuageux 457 m
nuageux 610 m
nuageux 823 m
2015/03/01 20:30 LFBI 012030Z AUTO 23014KT 9999 BKN015 BKN020 BKN027 11/09 Q1013
 
LFBH - La Rochelle/France
Distance de la station: ONO 106km
Mise à jour: 01/03/2015 21:30
Couvert
Couvert
 Wind from OSO
Vent: OSO 22 km/h
Température: 11°C
Point de Rosée: 11°C
Humidité: 100%
Baromètre: 1014 hPa
Nuages: Couvert
Visibilité: 6 km
Nuages details: Couvert 91 m
2015/03/01 20:30 LFBH 012030Z AUTO 24012KT 210V270 6000 OVC003 11/11 Q1014
LFBE - Bergerac/France
Distance de la station: SSE 107km
Mise à jour: 01/03/2015 21:30
faible pluie, nuageux
faible pluie, nuageux
 Wind from SO
Vent: SO 19 km/h
Température: 13°C
Point de Rosée: 12°C
Humidité: 94%
Baromètre: 1017 hPa
Récapitulatifs: faible pluie
Nuages: nuageux
Visibilité: 10 km
Nuages details: Quelques Nuages 396 m
nuageux 671 m
nuageux 884 m
2015/03/01 20:30 LFBE 012030Z AUTO 23010KT 9999 -RA FEW013 BKN022 BKN029 13/12 Q1017
 
LFBD - Bordeaux/France
Distance de la station: SSO 121km
Mise à jour: 01/03/2015 21:30
Faible bruine, Couvert
Faible bruine, Couvert
 Wind from OSO
Vent: OSO 20 km/h
Température: 13°C
Point de Rosée: 12°C
Humidité: 94%
Baromètre: 1017 hPa
Récapitulatifs: Light Drizzle
Nuages: Couvert
Visibilité: 6 km
Nuages details: Couvert 152 m
2015/03/01 20:30 LFBD 012030Z AUTO 25011KT 6000 -DZ OVC005 13/12 Q1017
LFRI - La Roche-sur-Yon/France
Distance de la station: NO 156km
Mise à jour: 01/03/2015 21:30
Couvert
Couvert
 Wind from OSO
Vent: OSO 20 km/h
Température: 11°C
Point de Rosée: 10°C
Humidité: 94%
Baromètre: 1012 hPa
Nuages: Couvert
Visibilité: 10 km
Nuages details: nuageux 244 m
Couvert 427 m
2015/03/01 20:30 LFRI 012030Z AUTO 25011KT 200V280 9999 BKN008 OVC014 11/10 Q1012
 
LFBC - Cazaux/France
Distance de la station: SO 167km
Mise à jour: 01/03/2015 21:30
Bruine, Broulliard, Couvert
Bruine, Broulliard, Couvert
 Wind from OSO
Vent: OSO 20 km/h
Température: 13°C
Point de Rosée: 12°C
Humidité: 94%
Baromètre: 1018 hPa
Récapitulatifs: Bruine, Broulliard
Nuages: Couvert
Visibilité: 3 km
Nuages details: Couvert 122 m
2015/03/01 20:30 LFBC 012030Z AUTO 25011KT 210V270 3300 DZ BR OVC004 13/12 Q1018
LFLX - Chateauroux/France
Distance de la station: NE 174km
Mise à jour: 01/03/2015 21:30
Couvert
Couvert
 Wind from OSO
Vent: OSO 33 km/h
Température: 12°C
Point de Rosée: 11°C
Humidité: 94%
Baromètre: 1011 hPa
Nuages: Couvert
Visibilité: 10 km
Nuages details: Couvert 274 m
2015/03/01 20:30 LFLX 012030Z AUTO 24018KT 9999 OVC009 12/11 Q1011
 
LFBA - Agen/France
Distance de la station: SSE 179km
Mise à jour: 01/03/2015 21:30
faible pluie, nuageux
faible pluie, nuageux
 Wind from OSO
Vent: OSO 19 km/h
Température: 14°C
Point de Rosée: 12°C
Humidité: 88%
Baromètre: 1018 hPa
Récapitulatifs: faible pluie
Nuages: nuageux
Visibilité: 10 km
Nuages details: Quelques Nuages 396 m
nuageux 549 m
nuageux 792 m
2015/03/01 20:30 LFBA 012030Z AUTO 25010KT 220V280 9999 -RA FEW013 BKN018 BKN026 14/12 Q1018